Time;durP1;ratioP1;P1;durP2;ratioP2;P2;SDS_P1;SDS_P2;PMS_P1;PMS_P2;Temp;Humidity;BMP_temperature;BMP_pressure;BME280_temperature;BME280_humidity;BME280_pressure;Samples;Min_cycle;Max_cycle;Signal;HPM_P1;HPM_P2
2023/12/06 00:02:04;;;;;;;4.73;4.37;;;;;;;4.70;87.75;99698.72;5033076;28;20643;-76
2023/12/06 00:04:31;;;;;;;5.33;4.93;;;;;;;4.70;87.92;99708.22;5033707;28;20207;-77
2023/12/06 00:06:57;;;;;;;5.10;4.70;;;;;;;4.66;87.40;99722.00;5033214;28;20207;-77
2023/12/06 00:09:24;;;;;;;6.17;5.77;;;;;;;4.65;87.58;99726.31;5033777;28;20218;-77
2023/12/06 00:11:52;;;;;;;5.60;5.20;;;;;;;4.60;87.48;99725.50;5033287;28;20227;-76
2023/12/06 00:14:20;;;;;;;5.63;5.23;;;;;;;4.61;87.21;99732.38;5040521;28;20211;-77
2023/12/06 00:16:46;;;;;;;5.57;5.07;;;;;;;4.66;87.70;99727.19;5033046;28;20201;-77
2023/12/06 00:19:13;;;;;;;4.97;4.57;;;;;;;4.63;87.81;99735.81;5033584;28;20206;-77
2023/12/06 00:21:40;;;;;;;4.87;4.47;;;;;;;4.66;87.49;99737.50;5032886;28;20227;-77
2023/12/06 00:24:06;;;;;;;5.20;4.80;;;;;;;4.64;87.30;99742.72;5033015;28;20692;-77
2023/12/06 00:26:32;;;;;;;7.67;4.30;;;;;;;4.67;87.48;99742.69;5033369;28;20200;-77
2023/12/06 00:28:59;;;;;;;5.17;4.33;;;;;;;4.71;87.46;99748.69;5032896;28;20231;-76
2023/12/06 00:31:27;;;;;;;4.80;4.50;;;;;;;4.72;87.09;99748.69;5032626;28;20632;-77
2023/12/06 00:33:53;;;;;;;4.57;4.27;;;;;;;4.64;87.15;99755.66;5033099;28;20204;-77
2023/12/06 00:36:20;;;;;;;4.30;4.00;;;;;;;4.64;87.33;99749.59;5032593;28;20213;-77
2023/12/06 00:38:46;;;;;;;4.93;4.53;;;;;;;4.66;87.52;99742.69;5033169;28;20199;-77
2023/12/06 00:41:12;;;;;;;4.57;4.20;;;;;;;4.67;88.18;99741.84;5032996;28;20722;-77
2023/12/06 00:43:39;;;;;;;4.90;4.53;;;;;;;4.66;87.89;99740.09;5038917;28;20206;-77
2023/12/06 00:46:05;;;;;;;4.93;4.53;;;;;;;4.56;88.66;99737.59;5033030;28;20836;-77
2023/12/06 00:48:33;;;;;;;4.90;4.50;;;;;;;4.61;89.10;99726.38;5032996;28;20641;-77
2023/12/06 00:51:01;;;;;;;3.97;3.67;;;;;;;4.65;88.89;99718.56;5032439;28;20442;-77
2023/12/06 00:53:28;;;;;;;4.20;3.90;;;;;;;4.69;88.44;99725.44;5032491;28;20222;-77
2023/12/06 00:55:54;;;;;;;3.97;3.67;;;;;;;4.63;88.73;99733.22;5031727;28;20293;-76
2023/12/06 00:58:21;;;;;;;4.33;4.03;;;;;;;4.61;88.41;99728.94;5031743;28;20639;-77
2023/12/06 01:00:48;;;;;;;3.73;3.47;;;;;;;4.50;89.61;99721.25;5030797;28;20224;-77
2023/12/06 01:03:14;;;;;;;4.13;3.83;;;;;;;4.60;89.69;99701.38;5032317;28;20202;-77
2023/12/06 01:05:42;;;;;;;4.20;3.90;;;;;;;4.54;89.39;99712.63;5032476;28;20245;-77
2023/12/06 01:08:08;;;;;;;4.27;3.97;;;;;;;4.58;89.69;99706.56;5032011;28;20202;-77
2023/12/06 01:10:35;;;;;;;4.97;3.33;;;;;;;4.54;89.02;99717.81;5032240;28;20586;-76
2023/12/06 01:13:01;;;;;;;3.67;3.37;;;;;;;4.50;89.49;99719.53;5032910;28;20253;-77
2023/12/06 01:15:27;;;;;;;4.43;4.13;;;;;;;4.49;90.38;99711.78;5037903;28;20206;-77
2023/12/06 01:17:54;;;;;;;4.43;4.13;;;;;;;4.51;91.81;99685.06;5032126;28;20739;-77
2023/12/06 01:20:21;;;;;;;4.00;3.70;;;;;;;4.61;91.20;99685.00;5031865;28;20202;-77
2023/12/06 01:22:49;;;;;;;3.93;3.73;;;;;;;4.57;90.92;99685.03;5031391;28;20209;-77
2023/12/06 01:25:15;;;;;;;5.07;4.70;;;;;;;4.52;91.87;99689.38;5024428;28;20253;-77
2023/12/06 01:27:42;;;;;;;4.07;3.57;;;;;;;4.55;91.41;99689.34;5031748;28;20276;-77
2023/12/06 01:30:08;;;;;;;5.10;4.70;;;;;;;4.41;92.18;99677.38;5031780;28;20784;-77
2023/12/06 01:32:35;;;;;;;4.73;4.43;;;;;;;4.46;91.91;99676.50;5031534;28;20203;-77
2023/12/06 01:35:01;;;;;;;6.93;4.90;;;;;;;4.47;91.76;99675.63;5032097;28;20206;-77
2023/12/06 01:37:28;;;;;;;6.30;5.80;;;;;;;4.24;94.04;99660.28;5031372;28;20554;-77
2023/12/06 01:39:55;;;;;;;6.00;5.60;;;;;;;4.45;93.95;99643.75;5031804;28;20210;-76
2023/12/06 01:42:22;;;;;;;6.20;5.80;;;;;;;4.38;93.06;99655.03;5031062;28;20219;-76
2023/12/06 01:44:48;;;;;;;6.23;5.83;;;;;;;4.14;94.06;99659.47;5039574;28;20257;-76
2023/12/06 01:47:17;;;;;;;6.60;6.10;;;;;;;4.00;94.43;99650.06;5023664;28;20236;-77
2023/12/06 01:49:44;;;;;;;6.37;5.87;;;;;;;4.02;95.33;99631.09;5031501;28;20223;-76
2023/12/06 01:52:10;;;;;;;6.73;6.20;;;;;;;4.23;94.12;99630.13;5030760;28;20296;-77
2023/12/06 01:54:37;;;;;;;6.50;6.00;;;;;;;4.33;94.33;99631.78;5031635;28;20661;-76
2023/12/06 01:57:05;;;;;;;5.87;5.47;;;;;;;4.46;93.14;99644.59;5031178;28;20215;-77
2023/12/06 01:59:31;;;;;;;5.20;4.90;;;;;;;4.32;92.27;99671.41;5031866;28;20196;-77
2023/12/06 02:01:58;;;;;;;5.53;5.13;;;;;;;4.47;91.65;99687.69;5031315;28;20305;-76
2023/12/06 02:04:26;;;;;;;4.70;4.40;;;;;;;4.33;91.04;99714.44;5031850;28;20210;-77
2023/12/06 02:06:52;;;;;;;4.70;4.40;;;;;;;4.46;90.75;99715.25;5030947;28;20200;-76
2023/12/06 02:09:19;;;;;;;3.70;3.50;;;;;;;4.53;89.75;99739.34;5031317;28;20224;-77
2023/12/06 02:11:45;;;;;;;3.33;3.13;;;;;;;3.80;90.66;99762.00;5031367;28;20318;-77
2023/12/06 02:14:13;;;;;;;3.30;3.10;;;;;;;3.53;93.03;99724.22;5031523;28;20265;-77
2023/12/06 02:16:40;;;;;;;4.40;4.00;;;;;;;3.76;93.19;99703.50;5032147;28;20662;-77
2023/12/06 02:19:12;;;;;;;3.97;3.67;;;;;;;4.03;92.98;99694.81;5032312;28;20665;-77
2023/12/06 02:21:38;;;;;;;3.43;3.23;;;;;;;3.90;91.34;99722.38;5031557;28;20250;-77
2023/12/06 02:24:05;;;;;;;3.43;3.20;;;;;;;3.54;92.29;99728.50;5031762;28;20212;-76
2023/12/06 02:26:33;;;;;;;3.70;3.40;;;;;;;3.85;91.80;99716.38;5031848;28;20671;-77
2023/12/06 02:28:59;;;;;;;3.50;3.20;;;;;;;3.94;91.81;99726.69;5031617;28;20207;-77
2023/12/06 02:31:26;;;;;;;2.83;2.67;;;;;;;3.78;90.66;99737.91;5031322;28;20223;-77
2023/12/06 02:33:53;;;;;;;3.33;3.13;;;;;;;3.98;90.81;99738.72;5031189;28;20205;-77
2023/12/06 02:36:22;;;;;;;2.60;2.40;;;;;;;4.10;89.83;99749.84;5022441;28;20207;-76
2023/12/06 02:38:48;;;;;;;2.90;2.57;;;;;;;4.15;89.88;99761.91;5031306;28;20208;-77
2023/12/06 02:41:17;;;;;;;3.23;3.03;;;;;;;4.12;89.57;99773.94;5031178;28;20281;-76
2023/12/06 02:43:45;;;;;;;3.23;3.03;;;;;;;4.15;88.68;99787.72;5031051;28;20239;-77
2023/12/06 02:46:12;;;;;;;3.13;2.93;;;;;;;4.10;88.48;99799.81;5030569;28;20257;-77
2023/12/06 02:48:38;;;;;;;3.00;2.80;;;;;;;4.10;87.63;99822.16;5031029;28;20259;-77
2023/12/06 02:51:06;;;;;;;3.40;3.20;;;;;;;3.89;88.16;99826.53;5029635;28;20710;-76
2023/12/06 02:53:32;;;;;;;3.00;2.80;;;;;;;4.06;88.02;99825.63;5031018;28;20215;-77
2023/12/06 02:55:58;;;;;;;2.80;2.60;;;;;;;4.19;87.90;99829.91;5030888;28;20732;-76
2023/12/06 02:58:25;;;;;;;3.40;3.20;;;;;;;4.05;87.75;99839.41;5030494;28;20785;-77
2023/12/06 03:00:52;;;;;;;3.13;2.93;;;;;;;4.01;87.40;99851.47;5030492;28;20721;-76
2023/12/06 03:03:19;;;;;;;2.63;2.43;;;;;;;4.12;87.47;99852.31;5030521;28;20632;-76
2023/12/06 03:05:45;;;;;;;2.33;2.23;;;;;;;4.20;87.29;99856.59;5030710;28;20665;-76
2023/12/06 03:08:14;;;;;;;2.60;2.40;;;;;;;4.23;87.12;99864.34;5030422;28;20238;-76
2023/12/06 03:10:40;;;;;;;3.03;2.83;;;;;;;4.22;86.75;99871.22;5030687;28;20228;-77
2023/12/06 03:13:06;;;;;;;2.93;2.73;;;;;;;4.18;86.83;99870.38;5030613;28;20214;-76
2023/12/06 03:15:33;;;;;;;2.60;2.40;;;;;;;4.17;87.32;99872.97;5030421;28;20264;-76
2023/12/06 03:18:00;;;;;;;2.70;2.50;;;;;;;4.24;86.70;99868.63;5030393;28;20204;-77
2023/12/06 03:20:27;;;;;;;3.30;3.00;;;;;;;4.23;86.67;99872.94;5033128;28;20257;-76
2023/12/06 03:22:53;;;;;;;2.77;2.57;;;;;;;4.21;86.82;99876.41;5033563;28;20284;-76
2023/12/06 03:25:20;;;;;;;3.10;2.90;;;;;;;4.18;86.82;99877.25;5034435;28;20210;-76
2023/12/06 03:27:46;;;;;;;2.97;2.77;;;;;;;4.21;86.49;99879.00;5034055;28;20253;-76
2023/12/06 03:30:13;;;;;;;3.73;3.43;;;;;;;4.13;86.58;99887.59;5033782;28;20228;-76
2023/12/06 03:32:39;;;;;;;3.23;2.93;;;;;;;4.16;86.44;99887.59;5033953;28;20209;-76
2023/12/06 03:35:08;;;;;;;3.17;2.97;;;;;;;4.17;86.66;99888.47;5034316;28;20212;-76
2023/12/06 03:37:34;;;;;;;3.93;3.60;;;;;;;4.12;86.15;99892.75;5033101;28;20202;-76
2023/12/06 03:40:01;;;;;;;4.77;4.37;;;;;;;4.21;86.25;99903.09;5034123;28;20262;-77
2023/12/06 03:42:27;;;;;;;4.10;3.80;;;;;;;4.25;85.73;99909.97;5033388;28;20596;-76
2023/12/06 03:44:54;;;;;;;5.17;4.77;;;;;;;4.05;85.11;99935.81;5034871;28;20277;-77
2023/12/06 03:47:20;;;;;;;4.47;4.10;;;;;;;3.68;86.43;99933.22;5033413;28;20208;-76
2023/12/06 03:49:47;;;;;;;4.30;4.00;;;;;;;3.90;86.27;99916.00;5034088;28;20256;-76
2023/12/06 03:52:14;;;;;;;3.10;2.90;;;;;;;4.02;86.56;99911.72;5032646;28;20283;-76
2023/12/06 03:54:41;;;;;;;3.07;2.87;;;;;;;4.03;86.24;99916.88;5033899;28;20206;-76
2023/12/06 03:57:07;;;;;;;3.80;3.50;;;;;;;4.08;86.66;99917.72;5033454;28;20213;-76
2023/12/06 03:59:34;;;;;;;3.53;3.23;;;;;;;4.09;86.29;99918.59;5033767;28;20202;-77
2023/12/06 04:02:00;;;;;;;3.43;3.23;;;;;;;4.05;86.21;99920.31;5032959;28;20287;-77
2023/12/06 04:04:27;;;;;;;3.73;3.43;;;;;;;4.04;86.56;99923.75;5033868;28;20299;-76
2023/12/06 04:06:53;;;;;;;3.90;3.60;;;;;;;4.06;86.69;99918.59;5033708;28;20207;-76
2023/12/06 04:09:21;;;;;;;4.33;4.03;;;;;;;4.04;86.38;99922.91;5033354;28;20207;-76
2023/12/06 04:11:47;;;;;;;4.60;4.30;;;;;;;4.07;86.55;99925.50;5033439;28;20288;-76
2023/12/06 04:14:14;;;;;;;4.77;4.47;;;;;;;4.04;86.15;99938.41;5034167;28;20228;-76
2023/12/06 04:16:40;;;;;;;5.07;4.67;;;;;;;4.09;86.01;99937.53;5033043;28;20273;-76
2023/12/06 04:19:07;;;;;;;4.87;4.47;;;;;;;4.15;85.86;99944.44;5032967;28;20663;-76
2023/12/06 04:21:33;;;;;;;4.90;4.50;;;;;;;4.17;85.68;99946.13;5032437;28;20219;-76
2023/12/06 04:23:59;;;;;;;4.20;3.90;;;;;;;4.14;85.58;99956.50;5033201;28;20408;-76
2023/12/06 04:26:27;;;;;;;5.33;4.93;;;;;;;4.16;85.89;99962.50;5033150;28;20207;-77
2023/12/06 04:28:53;;;;;;;4.90;4.50;;;;;;;4.18;85.66;99950.47;5032695;28;20310;-76
2023/12/06 04:31:20;;;;;;;5.80;5.40;;;;;;;4.13;85.47;99953.91;5031405;28;20289;-76
2023/12/06 04:33:46;;;;;;;6.47;5.87;;;;;;;3.93;85.92;99961.66;5033124;28;20205;-77
2023/12/06 04:36:13;;;;;;;6.73;6.23;;;;;;;3.71;86.14;99966.78;5032431;28;20223;-76
2023/12/06 04:38:39;;;;;;;7.87;7.20;;;;;;;3.15;88.33;99945.19;5033123;28;20212;-76
2023/12/06 04:41:06;;;;;;;8.67;7.97;;;;;;;3.17;89.48;99907.34;5032666;28;20221;-76
2023/12/06 04:43:34;;;;;;;8.60;7.90;;;;;;;3.26;89.82;99895.34;5033597;28;20749;-76
2023/12/06 04:46:00;;;;;;;8.57;7.77;;;;;;;3.05;90.48;99871.19;5032731;28;20639;-76
2023/12/06 04:48:27;;;;;;;9.77;8.87;;;;;;;3.16;90.44;99855.78;5032856;28;20207;-76
2023/12/06 04:50:53;;;;;;;10.63;9.70;;;;;;;3.19;90.47;99845.44;5032305;28;20231;-75
2023/12/06 04:53:20;;;;;;;10.90;10.07;;;;;;;2.94;90.50;99860.03;5031934;28;20199;-76
2023/12/06 04:55:46;;;;;;;10.40;9.43;;;;;;;3.38;90.51;99836.03;5032729;28;20204;-76
2023/12/06 04:58:13;;;;;;;10.70;9.80;;;;;;;3.05;90.83;99853.16;5032219;28;20263;-76
2023/12/06 05:00:43;;;;;;;10.77;9.87;;;;;;;2.67;92.46;99840.16;5032672;28;20369;-76
2023/12/06 05:03:10;;;;;;;10.30;9.40;;;;;;;2.88;92.49;99806.72;5032122;28;20207;-76
2023/12/06 05:05:36;;;;;;;10.07;9.17;;;;;;;2.90;92.75;99796.44;5032472;28;20209;-76
2023/12/06 05:08:03;;;;;;;10.00;9.03;;;;;;;2.57;93.66;99800.63;5031831;28;20208;-76
2023/12/06 05:10:29;;;;;;;9.40;8.60;;;;;;;2.70;92.85;99784.38;5032079;28;20222;-76
2023/12/06 05:12:56;;;;;;;9.77;8.60;;;;;;;2.90;93.07;99778.41;5032274;28;20731;-76
2023/12/06 05:15:23;;;;;;;10.20;9.23;;;;;;;2.70;93.36;99784.38;5032872;28;20260;-76
2023/12/06 05:17:50;;;;;;;9.80;8.90;;;;;;;2.85;92.97;99774.94;5032369;28;20203;-76
2023/12/06 05:20:17;;;;;;;9.67;8.87;;;;;;;2.79;92.85;99783.50;5031852;28;20208;-76
2023/12/06 05:22:43;;;;;;;11.37;10.27;;;;;;;2.90;92.69;99786.97;5031459;28;20211;-76
2023/12/06 05:25:10;;;;;;;10.50;9.60;;;;;;;2.54;93.67;99796.34;5031710;28;20260;-77
2023/12/06 05:27:36;;;;;;;10.87;9.93;;;;;;;2.65;94.09;99775.75;5032058;28;20203;-76
2023/12/06 05:30:03;;;;;;;10.87;9.87;;;;;;;2.85;93.48;99773.22;5031954;28;20233;-76
2023/12/06 05:32:29;;;;;;;11.10;10.10;;;;;;;3.00;93.13;99776.69;5031287;28;20321;-76
2023/12/06 05:34:57;;;;;;;11.40;10.40;;;;;;;3.22;92.11;99780.13;5032031;28;20257;-76
2023/12/06 05:37:22;;;;;;;10.47;9.47;;;;;;;3.33;91.37;99809.34;5032215;28;20215;-76
2023/12/06 05:39:49;;;;;;;10.37;9.47;;;;;;;3.13;90.99;99837.69;5031759;28;20581;-76
2023/12/06 05:42:16;;;;;;;10.13;9.30;;;;;;;2.92;90.83;99847.13;5030992;28;20235;-76
2023/12/06 05:44:42;;;;;;;10.30;9.50;;;;;;;2.94;91.36;99848.00;5033756;28;20630;-76
2023/12/06 05:47:09;;;;;;;10.47;9.63;;;;;;;3.07;91.29;99840.28;5031310;28;20238;-77
2023/12/06 05:49:35;;;;;;;10.17;9.33;;;;;;;2.94;90.73;99858.28;5031695;28;20212;-76
2023/12/06 05:52:03;;;;;;;9.87;9.07;;;;;;;3.02;90.54;99860.91;5030713;28;20231;-75
2023/12/06 05:54:29;;;;;;;9.73;9.00;;;;;;;3.05;90.39;99870.34;5031429;28;20205;-76
2023/12/06 05:56:55;;;;;;;9.33;8.53;;;;;;;2.80;90.41;99875.44;5031330;28;20208;-76
2023/12/06 05:59:22;;;;;;;10.37;9.57;;;;;;;2.75;90.14;99879.72;5031033;28;20734;-76
2023/12/06 06:01:48;;;;;;;9.90;9.10;;;;;;;2.76;91.47;99863.41;5031476;28;20230;-76
2023/12/06 06:04:15;;;;;;;11.27;10.37;;;;;;;2.80;91.38;99856.56;5030818;28;20210;-76
2023/12/06 06:06:41;;;;;;;9.87;9.07;;;;;;;2.90;91.17;99860.88;5030850;28;20201;-76
2023/12/06 06:09:09;;;;;;;10.43;9.63;;;;;;;2.64;91.02;99873.69;5031169;28;20211;-76
2023/12/06 06:11:36;;;;;;;11.00;10.03;;;;;;;2.72;91.70;99861.69;5023168;28;20236;-76
2023/12/06 06:14:02;;;;;;;11.00;10.10;;;;;;;2.41;93.44;99852.97;5033234;28;20209;-76
2023/12/06 06:16:29;;;;;;;10.37;9.47;;;;;;;2.47;93.75;99835.81;5031293;28;20291;-76
2023/12/06 06:18:55;;;;;;;10.50;9.60;;;;;;;2.74;93.13;99821.31;5031459;28;20222;-76
2023/12/06 06:21:22;;;;;;;10.23;9.33;;;;;;;2.92;92.83;99816.19;5029945;28;20248;-76
2023/12/06 06:23:48;;;;;;;10.97;9.93;;;;;;;2.78;92.03;99833.34;5031122;28;20261;-76
2023/12/06 06:26:16;;;;;;;10.83;9.90;;;;;;;2.80;92.30;99848.81;5031386;28;20257;-76
2023/12/06 06:28:42;;;;;;;10.93;10.03;;;;;;;2.53;92.39;99848.69;5030984;28;20696;-76
2023/12/06 06:31:09;;;;;;;10.60;9.73;;;;;;;2.47;93.32;99837.53;5030770;28;20690;-76
2023/12/06 06:33:35;;;;;;;11.00;10.10;;;;;;;2.39;93.77;99832.34;5022993;28;20248;-76
2023/12/06 06:36:02;;;;;;;11.47;10.47;;;;;;;2.28;94.37;99823.69;5030354;28;20266;-76
2023/12/06 06:38:29;;;;;;;10.83;9.83;;;;;;;2.45;94.43;99809.19;5031264;28;20258;-76
2023/12/06 06:40:55;;;;;;;10.73;9.83;;;;;;;2.44;94.09;99814.31;5031005;28;20696;-76
2023/12/06 06:43:23;;;;;;;10.50;9.60;;;;;;;2.72;92.55;99820.44;5033299;28;20566;-76
2023/12/06 06:45:49;;;;;;;10.83;9.93;;;;;;;2.74;91.56;99832.47;5030773;28;20584;-76
2023/12/06 06:48:15;;;;;;;9.97;9.17;;;;;;;2.47;91.51;99865.84;5031132;28;20285;-76
2023/12/06 06:50:42;;;;;;;10.60;9.70;;;;;;;2.69;91.61;99861.66;5030701;28;20300;-76
2023/12/06 06:53:10;;;;;;;10.43;9.53;;;;;;;2.52;91.25;99875.34;5030622;28;20211;-76
2023/12/06 06:55:37;;;;;;;11.20;10.20;;;;;;;2.45;91.89;99889.03;5034451;28;20195;-76
2023/12/06 06:58:03;;;;;;;10.93;9.93;;;;;;;2.75;91.24;99883.13;5034642;28;20214;-76
2023/12/06 07:00:31;;;;;;;10.43;9.53;;;;;;;2.84;90.02;99904.69;5034115;28;20305;-76
2023/12/06 07:02:57;;;;;;;10.57;9.77;;;;;;;2.78;89.61;99926.13;5034570;28;20204;-76
2023/12/06 07:05:24;;;;;;;10.63;9.83;;;;;;;2.80;89.70;99929.56;5034885;28;20218;-76
2023/12/06 07:07:50;;;;;;;9.90;9.10;;;;;;;2.90;89.97;99933.06;5033981;28;20201;-76
2023/12/06 07:10:16;;;;;;;9.90;9.10;;;;;;;2.76;89.86;99948.44;5034357;28;20265;-76
2023/12/06 07:12:43;;;;;;;9.87;9.07;;;;;;;2.41;90.43;99955.97;5034141;28;20261;-76
2023/12/06 07:15:14;;;;;;;10.27;9.27;;;;;;;2.67;91.31;99936.38;5037071;28;20207;-76
2023/12/06 07:17:43;;;;;;;10.63;9.73;;;;;;;2.74;90.64;99945.84;5034109;28;20205;-76
2023/12/06 07:20:11;;;;;;;10.23;9.33;;;;;;;2.57;91.12;99950.06;5034265;28;20205;-76
2023/12/06 07:22:37;;;;;;;10.93;10.03;;;;;;;2.72;91.33;99939.84;5033552;28;20690;-76
2023/12/06 07:25:04;;;;;;;10.23;9.33;;;;;;;2.97;90.26;99947.66;5034590;28;20263;-76
2023/12/06 07:27:31;;;;;;;10.37;9.47;;;;;;;3.13;90.05;99959.78;5033954;28;20354;-76
2023/12/06 07:29:57;;;;;;;10.07;9.17;;;;;;;3.33;89.33;99970.16;5034156;28;20575;-76
2023/12/06 07:32:24;;;;;;;9.83;9.03;;;;;;;3.46;88.73;99991.69;5033367;28;20280;-76
2023/12/06 07:34:51;;;;;;;9.27;8.47;;;;;;;3.58;88.27;100003.75;5034326;28;20269;-76
2023/12/06 07:37:18;;;;;;;9.87;8.87;;;;;;;3.63;87.82;100021.81;5033779;28;20203;-76
2023/12/06 07:39:44;;;;;;;9.03;8.23;;;;;;;3.74;87.17;100035.63;5034474;28;20248;-76
2023/12/06 07:42:10;;;;;;;9.03;8.30;;;;;;;3.75;86.88;100058.88;5033584;28;20224;-76
2023/12/06 07:44:37;;;;;;;9.40;8.60;;;;;;;3.77;86.50;100074.38;5037177;28;20237;-76
2023/12/06 07:47:03;;;;;;;8.23;7.43;;;;;;;3.81;86.08;100082.97;5033828;28;20207;-77
2023/12/06 07:49:30;;;;;;;8.13;7.43;;;;;;;3.56;86.09;100106.97;5033937;28;20210;-76
2023/12/06 07:51:58;;;;;;;8.83;8.03;;;;;;;3.56;86.19;100103.53;5032966;28;20233;-76
2023/12/06 07:54:25;;;;;;;8.87;8.07;;;;;;;3.43;86.41;100110.38;5033419;28;20737;-77
2023/12/06 07:56:51;;;;;;;8.87;7.97;;;;;;;3.33;86.42;100108.56;5033510;28;20634;-76
2023/12/06 07:59:17;;;;;;;9.10;8.33;;;;;;;3.29;87.28;100097.41;5033613;28;20214;-76
2023/12/06 08:01:44;;;;;;;9.47;8.67;;;;;;;3.48;86.91;100102.63;5033502;28;20281;-76
2023/12/06 08:04:10;;;;;;;9.00;8.20;;;;;;;3.49;86.89;100110.41;5033739;28;20208;-76
2023/12/06 08:06:37;;;;;;;9.90;8.10;;;;;;;2.91;87.81;100112.63;5032724;28;20456;-76
2023/12/06 08:09:10;;;;;;;9.47;8.67;;;;;;;2.69;88.56;100097.00;5033578;28;20687;-76
2023/12/06 08:11:37;;;;;;;10.13;9.23;;;;;;;2.78;88.94;100066.16;5033032;28;20247;-76
2023/12/06 08:14:03;;;;;;;11.63;10.63;;;;;;;2.85;88.88;100058.44;5035878;28;20208;-77
2023/12/06 08:16:30;;;;;;;11.07;10.10;;;;;;;2.77;89.45;100056.72;5033437;28;20210;-77
2023/12/06 08:18:56;;;;;;;11.07;10.07;;;;;;;2.74;88.58;100058.41;5033670;28;20208;-76
2023/12/06 08:21:23;;;;;;;10.90;9.90;;;;;;;2.92;88.23;100055.06;5032460;28;20270;-76
2023/12/06 08:23:49;;;;;;;11.23;10.23;;;;;;;2.67;88.51;100067.78;5033185;28;20712;-76
2023/12/06 08:26:17;;;;;;;11.00;10.00;;;;;;;2.92;88.57;100057.66;5033329;28;20898;-78
2023/12/06 08:28:43;;;;;;;11.70;10.70;;;;;;;3.04;88.37;100056.84;5034019;28;20206;-77
2023/12/06 08:31:10;;;;;;;11.80;10.73;;;;;;;2.99;87.82;100074.88;5032786;28;20302;-75
2023/12/06 08:33:37;;;;;;;11.53;10.53;;;;;;;2.62;87.38;100104.66;5034812;28;20212;-78
2023/12/06 08:36:04;;;;;;;12.63;11.53;;;;;;;2.73;87.35;100106.47;5034389;28;20211;-78
2023/12/06 08:38:30;;;;;;;11.80;10.70;;;;;;;2.73;87.29;100113.34;5032430;28;20249;-78
2023/12/06 08:40:56;;;;;;;13.10;12.00;;;;;;;2.84;87.14;100113.44;5034717;28;20226;-77
2023/12/06 08:43:24;;;;;;;13.27;12.17;;;;;;;2.48;86.94;100126.06;5036977;28;20211;-77
2023/12/06 08:45:51;;;;;;;13.70;12.40;;;;;;;2.29;88.07;100124.16;5032152;28;20665;-76
2023/12/06 08:48:17;;;;;;;13.93;12.63;;;;;;;2.67;88.23;100109.00;5033093;28;20203;-76
2023/12/06 08:50:44;;;;;;;13.43;12.23;;;;;;;2.28;88.17;100114.69;5032172;28;20651;-78
2023/12/06 08:53:10;;;;;;;13.13;12.03;;;;;;;2.43;88.89;100099.38;5033535;28;20631;-79
2023/12/06 08:55:36;;;;;;;13.47;12.17;;;;;;;2.24;90.19;100088.06;5033223;28;20635;-78
2023/12/06 08:58:04;;;;;;;13.77;12.57;;;;;;;2.05;89.57;100081.88;5034112;28;20555;-78
2023/12/06 09:00:32;;;;;;;14.23;12.90;;;;;;;1.92;90.91;100052.56;5034037;28;20240;-78
2023/12/06 09:02:59;;;;;;;13.33;12.13;;;;;;;2.26;91.22;100034.84;5034321;28;20211;-79
2023/12/06 09:05:25;;;;;;;13.70;12.40;;;;;;;2.45;91.70;100022.13;5034553;28;20207;-78
2023/12/06 09:07:51;;;;;;;13.10;11.90;;;;;;;2.56;90.68;100025.63;5032405;28;20207;-78
2023/12/06 09:10:18;;;;;;;14.03;12.63;;;;;;;2.06;92.26;100038.94;5032648;28;20208;-78
2023/12/06 09:12:44;;;;;;;15.83;14.40;;;;;;;2.21;93.47;99997.91;5033382;28;20261;-78
2023/12/06 09:15:11;;;;;;;15.43;14.03;;;;;;;2.15;94.43;99978.13;5033983;28;20212;-78
2023/12/06 09:17:39;;;;;;;16.03;14.53;;;;;;;2.28;93.94;99968.78;5033940;28;20249;-78
2023/12/06 09:20:06;;;;;;;15.07;13.77;;;;;;;2.06;94.82;99966.88;5029801;28;20748;-78
2023/12/06 09:22:33;;;;;;;15.77;14.17;;;;;;;2.08;95.21;99949.72;5033069;28;20223;-79
2023/12/06 09:24:59;;;;;;;18.43;14.03;;;;;;;2.16;96.48;99923.22;5034207;28;20226;-79
2023/12/06 09:27:25;;;;;;;16.63;14.93;;;;;;;2.32;96.15;99913.88;5033945;28;20854;-78
2023/12/06 09:29:52;;;;;;;16.40;14.80;;;;;;;2.09;95.86;99926.56;5033295;28;20631;-79
2023/12/06 09:32:18;;;;;;;18.67;16.53;;;;;;;1.94;97.77;99903.28;5034126;28;20230;-78
2023/12/06 09:34:46;;;;;;;19.13;16.00;;;;;;;2.00;98.21;99893.03;5034032;28;21501;-78
2023/12/06 09:37:12;;;;;;;20.50;17.17;;;;;;;2.19;98.21;99878.59;5033319;28;20232;-78
2023/12/06 09:39:38;;;;;;;18.93;16.90;;;;;;;2.50;97.36;99883.91;5033968;28;20208;-78
2023/12/06 09:42:06;;;;;;;19.70;17.70;;;;;;;2.17;96.25;99913.75;5034037;28;20218;-78
2023/12/06 09:44:32;;;;;;;22.90;17.70;;;;;;;2.22;96.39;99922.38;5038722;28;20735;-79
2023/12/06 09:47:00;;;;;;;19.17;17.20;;;;;;;2.44;96.46;99922.50;5032971;28;20200;-78
2023/12/06 09:49:26;;;;;;;22.33;17.77;;;;;;;2.46;95.67;99925.94;5033266;28;20254;-78
2023/12/06 09:51:58;;;;;;;21.57;17.60;;;;;;;2.51;95.33;99943.16;5032680;28;20230;-78
2023/12/06 09:54:25;;;;;;;20.37;17.73;;;;;;;2.34;94.90;99952.50;5033774;28;20676;-78
2023/12/06 09:56:52;;;;;;;19.93;17.63;;;;;;;2.18;95.14;99954.97;5031684;28;20202;-78
2023/12/06 09:59:18;;;;;;;20.73;18.17;;;;;;;2.25;96.28;99942.16;5032818;28;20211;-78
2023/12/06 10:01:45;;;;;;;19.27;17.20;;;;;;;2.54;95.43;99942.34;5033463;28;20227;-78
2023/12/06 10:04:11;;;;;;;23.00;18.23;;;;;;;2.70;94.90;99954.44;5033652;28;20210;-78
2023/12/06 10:06:37;;;;;;;20.47;17.67;;;;;;;2.57;93.15;99976.69;5033614;28;20266;-79
2023/12/06 10:09:10;;;;;;;19.73;17.63;;;;;;;2.71;92.72;99989.63;5034344;28;20211;-78
2023/12/06 10:11:36;;;;;;;20.27;17.93;;;;;;;2.47;92.22;100013.53;5032371;28;20855;-79
2023/12/06 10:14:03;;;;;;;18.90;16.87;;;;;;;2.51;92.24;100011.84;5037383;28;20206;-78
2023/12/06 10:16:29;;;;;;;18.30;16.47;;;;;;;2.87;92.26;100018.09;5032836;28;20211;-78
2023/12/06 10:18:57;;;;;;;20.67;18.40;;;;;;;2.84;91.85;100030.97;5033867;28;20197;-79
2023/12/06 10:21:23;;;;;;;18.13;16.03;;;;;;;3.07;91.53;100039.69;5032590;28;20224;-78
2023/12/06 10:23:54;;;;;;;20.13;17.77;;;;;;;3.15;90.61;100061.22;5031971;28;20647;-77
2023/12/06 10:26:22;;;;;;;20.23;16.80;;;;;;;3.16;89.96;100082.72;5031600;28;20211;-78
2023/12/06 10:28:48;;;;;;;18.60;16.30;;;;;;;3.31;90.09;100084.47;5031335;28;20215;-77
2023/12/06 10:31:15;;;;;;;16.77;15.17;;;;;;;3.05;89.77;100115.28;5035950;28;20317;-78
2023/12/06 10:33:42;;;;;;;17.13;15.50;;;;;;;2.86;89.95;100128.06;5036658;28;20324;-78
2023/12/06 10:36:09;;;;;;;17.53;15.60;;;;;;;3.03;90.14;100119.56;5035523;28;20215;-78
2023/12/06 10:38:38;;;;;;;18.07;16.27;;;;;;;3.04;90.12;100117.03;5036248;28;20764;-78
2023/12/06 10:41:08;;;;;;;17.30;15.70;;;;;;;2.52;90.48;100126.94;5036467;28;20230;-78
2023/12/06 10:43:36;;;;;;;17.77;16.00;;;;;;;2.76;91.81;100085.91;5040845;28;20626;-78
2023/12/06 10:46:04;;;;;;;18.83;16.87;;;;;;;2.89;91.87;100085.97;5035730;28;20209;-77
2023/12/06 10:48:32;;;;;;;17.03;15.33;;;;;;;2.97;91.34;100079.16;5036314;28;20210;-78
2023/12/06 10:50:58;;;;;;;16.77;15.10;;;;;;;3.11;91.12;100081.81;5034212;28;20281;-78
2023/12/06 10:53:25;;;;;;;18.43;16.53;;;;;;;3.14;90.36;100095.59;5036126;28;20233;-78
2023/12/06 10:55:51;;;;;;;22.37;18.43;;;;;;;2.65;91.02;100109.84;5035949;28;21397;-78
2023/12/06 10:58:18;;;;;;;19.03;17.00;;;;;;;2.26;92.65;100091.50;5036057;28;20216;-78
2023/12/06 11:00:47;;;;;;;20.37;18.07;;;;;;;2.47;93.75;100048.75;5035490;28;20230;-78
2023/12/06 11:03:14;;;;;;;19.80;17.90;;;;;;;2.70;93.21;100034.31;5035715;28;20201;-78
2023/12/06 11:05:44;;;;;;;19.83;17.37;;;;;;;2.69;92.96;100032.56;5034835;28;20740;-78
2023/12/06 11:08:27;;;;;;;21.63;18.93;;;;;;;2.63;92.83;100040.28;5035838;28;20207;-78
2023/12/06 11:11:10;;;;;;;24.23;19.27;;;;;;;1.90;94.86;100033.69;5034630;28;20238;-77
2023/12/06 11:13:49;;;;;;;24.63;19.90;;;;;;;2.03;95.39;100001.19;5039891;28;20231;-77
2023/12/06 11:16:32;;;;;;;25.23;19.37;;;;;;;1.88;96.80;99975.31;5034804;28;20203;-77
2023/12/06 11:18:59;;;;;;;26.53;20.63;;;;;;;1.98;97.53;99952.25;5034731;28;20214;-77
2023/12/06 11:21:28;;;;;;;26.00;20.47;;;;;;;2.19;97.42;99933.50;5033796;28;20260;-78
2023/12/06 11:23:56;;;;;;;27.53;21.30;;;;;;;2.14;97.28;99942.03;5034957;28;20208;-77
2023/12/06 11:26:22;;;;;;;26.83;21.40;;;;;;;2.16;98.21;99928.34;5033812;28;20635;-77
2023/12/06 11:28:50;;;;;;;27.90;21.30;;;;;;;2.10;98.47;99923.16;5034486;28;20634;-77
2023/12/06 11:31:17;;;;;;;25.67;20.47;;;;;;;1.85;98.54;99927.25;5034474;28;20646;-78
2023/12/06 11:33:55;;;;;;;30.00;20.93;;;;;;;1.77;98.67;99914.31;5035048;28;20226;-78